Curran, Illinois
Current Conditions -  °F | °C
As of 9:52 AM on Wednesday 22 Oct 2014 (Local Time) from KSPI Reporting Station
Clear Clear  
Wind Chill: 51°   Ceiling: Unl
Heat Index: 51°   Visibility: 10mi
Dew Point: 40°   Wind: 6mph
Humidity: 66%   Direction: 120°ESE
Pressure: 30.36"   Gusts: NA
Location:  39.7375°N, 89.904°W
Report Text: KSPI 221452Z 12005KT 10SM CLR 11/04 A3036 RMK AO2 SLP282 T01060044 53015
Loading
Personal Weather Stations






























Interactive Weather Map
Tropical Storm Tracking
New forecast layout! Learn more

10-Day Weather Forecast

Advertisements
Track Severe Weather on mobile